createdAt,value
2018-12-20T00:01:56.589Z,90.20
2018-12-20T00:04:25.679Z,89.80
2018-12-20T00:06:54.588Z,90.20
2018-12-20T00:09:23.507Z,89.70
2018-12-20T00:11:52.432Z,89.40
2018-12-20T00:14:21.619Z,90.20
2018-12-20T00:16:54.717Z,89.70
2018-12-20T00:19:23.694Z,89.80
2018-12-20T00:21:52.826Z,90.00
2018-12-20T00:24:22.026Z,90.00
2018-12-20T00:26:51.017Z,89.40
2018-12-20T00:29:19.904Z,89.50
2018-12-20T00:31:48.876Z,88.90
2018-12-20T00:34:17.880Z,88.60
2018-12-20T00:36:46.856Z,89.00
2018-12-20T00:39:15.908Z,88.80
2018-12-20T00:41:44.867Z,88.60
2018-12-20T00:44:13.870Z,89.10
2018-12-20T00:46:42.973Z,88.40
2018-12-20T00:49:12.028Z,88.00
2018-12-20T00:51:41.022Z,87.80
2018-12-20T00:54:10.030Z,87.90
2018-12-20T00:56:39.097Z,87.80
2018-12-20T00:59:08.030Z,87.60
2018-12-20T01:01:37.134Z,87.70
2018-12-20T01:04:06.171Z,87.70
2018-12-20T01:06:35.194Z,88.00
2018-12-20T01:09:06.676Z,88.10
2018-12-20T01:11:35.710Z,88.50
2018-12-20T01:14:04.605Z,88.20
2018-12-20T01:16:33.568Z,88.10
2018-12-20T01:19:02.537Z,88.10
2018-12-20T01:21:32.018Z,88.30
2018-12-20T01:24:01.033Z,88.20
2018-12-20T01:26:30.285Z,88.10
2018-12-20T01:28:59.339Z,88.10
2018-12-20T01:31:28.248Z,87.90
2018-12-20T01:33:57.390Z,88.80
2018-12-20T01:36:26.506Z,87.50
2018-12-20T01:38:55.466Z,87.60
2018-12-20T01:41:24.474Z,87.20
2018-12-20T01:43:53.376Z,87.10
2018-12-20T01:46:22.463Z,87.30
2018-12-20T01:48:51.362Z,87.30
2018-12-20T01:51:20.334Z,87.20
2018-12-20T01:53:49.257Z,87.00
2018-12-20T01:56:18.198Z,86.60
2018-12-20T01:58:47.270Z,86.70
2018-12-20T02:01:16.358Z,86.80
2018-12-20T02:03:45.366Z,87.50
2018-12-20T02:06:14.369Z,86.50
2018-12-20T02:08:44.312Z,86.30
2018-12-20T02:11:13.289Z,86.50
2018-12-20T02:13:42.238Z,86.60
2018-12-20T02:16:11.159Z,86.40
2018-12-20T02:18:40.168Z,86.50
2018-12-20T02:21:09.213Z,86.30
2018-12-20T02:23:38.232Z,86.20
2018-12-20T02:26:07.142Z,86.00
2018-12-20T02:28:37.078Z,86.20
2018-12-20T02:31:06.234Z,85.90
2018-12-20T02:33:35.884Z,86.00
2018-12-20T02:36:05.143Z,85.80
2018-12-20T02:38:34.268Z,85.90
2018-12-20T02:41:03.331Z,85.80
2018-12-20T02:43:32.409Z,85.80
2018-12-20T02:46:01.598Z,86.60
2018-12-20T02:48:30.507Z,85.50
2018-12-20T02:50:59.461Z,85.80
2018-12-20T02:53:28.614Z,86.10
2018-12-20T02:55:57.539Z,85.80
2018-12-20T02:58:26.717Z,85.70
2018-12-20T03:00:55.970Z,85.80
2018-12-20T03:03:25.106Z,85.50
2018-12-20T03:05:54.573Z,85.50
2018-12-20T03:08:23.926Z,85.80
2018-12-20T03:10:52.823Z,85.30
2018-12-20T03:13:21.780Z,85.50
2018-12-20T03:15:50.730Z,85.50
2018-12-20T03:18:19.788Z,85.50
2018-12-20T03:20:49.076Z,85.50
2018-12-20T03:23:18.090Z,86.00
2018-12-20T03:25:47.021Z,85.80
2018-12-20T03:28:16.031Z,85.20
2018-12-20T03:30:44.994Z,85.20
2018-12-20T03:33:13.617Z,85.20
2018-12-20T03:35:42.589Z,85.50
2018-12-20T03:38:11.508Z,85.70
2018-12-20T03:40:40.497Z,86.00
2018-12-20T03:43:09.402Z,85.40
2018-12-20T03:45:38.578Z,85.50
2018-12-20T03:48:07.594Z,85.40
2018-12-20T03:50:36.667Z,84.80
2018-12-20T03:53:05.746Z,84.20
2018-12-20T03:55:34.749Z,85.10
2018-12-20T03:58:07.052Z,84.40
2018-12-20T04:03:44.587Z,84.40
2018-12-20T04:06:13.630Z,84.30
2018-12-20T04:11:50.476Z,85.10
2018-12-20T04:14:19.351Z,84.80
2018-12-20T04:16:53.908Z,84.50
2018-12-20T04:19:23.121Z,84.60
2018-12-20T04:21:52.319Z,84.40
2018-12-20T04:24:21.257Z,84.80
2018-12-20T04:26:50.361Z,84.10
2018-12-20T04:29:36.322Z,84.70
2018-12-20T04:32:05.270Z,84.70
2018-12-20T04:34:34.277Z,84.70
2018-12-20T04:37:03.281Z,84.40
2018-12-20T04:39:32.196Z,83.90
2018-12-20T04:42:01.120Z,84.70
2018-12-20T04:44:30.205Z,84.40
2018-12-20T04:46:59.682Z,83.70
2018-12-20T04:49:28.957Z,83.90
2018-12-20T04:51:57.868Z,83.90
2018-12-20T04:54:27.081Z,84.30
2018-12-20T04:56:56.143Z,84.20
2018-12-20T04:59:25.356Z,84.10
2018-12-20T05:01:54.308Z,84.00
2018-12-20T05:04:23.216Z,83.60
2018-12-20T05:06:52.083Z,83.90
2018-12-20T05:09:20.934Z,84.00
2018-12-20T05:11:50.055Z,83.70
2018-12-20T05:14:19.090Z,84.40
2018-12-20T05:16:48.024Z,84.50
2018-12-20T05:19:16.941Z,84.80
2018-12-20T05:21:45.800Z,84.40
2018-12-20T05:24:15.086Z,85.80
2018-12-20T05:26:44.185Z,84.50
2018-12-20T05:29:13.218Z,84.10
2018-12-20T05:31:42.251Z,84.30
2018-12-20T05:34:11.159Z,84.30
2018-12-20T05:36:40.061Z,84.30
2018-12-20T05:39:08.948Z,84.50
2018-12-20T05:41:43.308Z,84.80
2018-12-20T05:44:30.398Z,84.40
2018-12-20T05:46:59.392Z,84.50
2018-12-20T05:49:34.016Z,84.30
2018-12-20T05:52:02.938Z,85.10
2018-12-20T05:54:37.830Z,84.20
2018-12-20T06:00:12.072Z,84.10
2018-12-20T06:02:49.173Z,84.40
2018-12-20T06:05:23.942Z,84.20
2018-12-20T06:07:58.857Z,84.50
2018-12-20T06:10:31.844Z,84.90
2018-12-20T06:13:00.768Z,84.80
2018-12-20T06:15:29.876Z,84.40
2018-12-20T06:17:59.001Z,84.30
2018-12-20T06:20:27.957Z,84.40
2018-12-20T06:22:56.835Z,84.00
2018-12-20T06:25:25.726Z,83.90
2018-12-20T06:30:16.462Z,83.80
2018-12-20T06:32:45.649Z,84.60
2018-12-20T06:35:14.662Z,84.80
2018-12-20T06:37:43.610Z,84.80
2018-12-20T06:40:12.498Z,85.00
2018-12-20T06:42:41.486Z,85.30
2018-12-20T06:45:10.393Z,85.20
2018-12-20T06:47:39.297Z,85.20
2018-12-20T06:50:08.304Z,85.30
2018-12-20T06:52:37.338Z,85.30
2018-12-20T06:55:06.355Z,85.50
2018-12-20T06:57:35.292Z,85.20
2018-12-20T07:00:04.903Z,84.50
2018-12-20T07:02:33.825Z,84.00
2018-12-20T07:05:02.839Z,83.80
2018-12-20T07:07:31.709Z,84.00
2018-12-20T07:10:00.665Z,83.30
2018-12-20T07:12:29.615Z,83.20
2018-12-20T07:14:58.531Z,83.20
2018-12-20T07:17:27.490Z,83.40
2018-12-20T07:19:57.115Z,83.10
2018-12-20T07:22:26.787Z,83.20
2018-12-20T07:24:56.472Z,82.90
2018-12-20T07:27:26.963Z,82.50
2018-12-20T07:29:56.258Z,82.60
2018-12-20T07:32:25.614Z,82.60
2018-12-20T07:34:56.388Z,82.90
2018-12-20T07:37:27.002Z,82.10
2018-12-20T07:39:57.442Z,82.20
2018-12-20T07:42:26.446Z,82.00
2018-12-20T07:44:55.360Z,82.60
2018-12-20T07:47:26.459Z,82.30
2018-12-20T07:49:56.339Z,82.20
2018-12-20T07:52:26.748Z,82.30
2018-12-20T07:54:55.773Z,82.30
2018-12-20T07:57:24.939Z,82.40
2018-12-20T07:59:54.001Z,82.10
2018-12-20T08:02:22.880Z,82.70
2018-12-20T08:04:51.761Z,83.00
2018-12-20T08:07:20.668Z,82.30
2018-12-20T08:09:49.661Z,82.20
2018-12-20T08:12:18.619Z,81.50
2018-12-20T08:14:47.668Z,81.10
2018-12-20T08:17:16.545Z,81.30
2018-12-20T08:19:45.421Z,81.10
2018-12-20T08:22:14.312Z,80.90
2018-12-20T08:24:43.295Z,82.30
2018-12-20T08:27:12.582Z,81.20
2018-12-20T08:29:43.825Z,81.20
2018-12-20T08:32:12.747Z,81.00
2018-12-20T08:34:41.711Z,80.90
2018-12-20T08:37:10.644Z,80.10
2018-12-20T08:39:39.533Z,80.00
2018-12-20T08:42:08.397Z,80.00
2018-12-20T08:44:37.301Z,80.00
2018-12-20T08:47:06.672Z,79.80
2018-12-20T08:49:35.860Z,79.40
2018-12-20T08:52:04.881Z,78.70
2018-12-20T08:54:34.110Z,78.80
2018-12-20T08:57:04.350Z,78.80
2018-12-20T08:59:33.499Z,78.50
2018-12-20T09:02:02.435Z,79.00
2018-12-20T09:04:33.415Z,79.10
2018-12-20T09:07:02.456Z,79.10
2018-12-20T09:09:31.423Z,79.50
2018-12-20T09:12:00.347Z,78.40
2018-12-20T09:14:29.306Z,79.20
2018-12-20T09:19:47.372Z,78.20
2018-12-20T09:22:16.365Z,76.90
2018-12-20T09:24:45.267Z,75.80
2018-12-20T09:27:14.250Z,76.30
2018-12-20T09:29:43.249Z,75.10
2018-12-20T09:32:12.228Z,74.40
2018-12-20T09:34:41.380Z,73.90
2018-12-20T09:37:10.273Z,74.30
2018-12-20T09:39:39.219Z,74.70
2018-12-20T09:42:08.130Z,74.30
2018-12-20T09:44:37.044Z,74.20
2018-12-20T09:48:10.796Z,74.60
2018-12-20T09:50:39.703Z,74.60
2018-12-20T09:53:08.609Z,74.30
2018-12-20T09:55:37.541Z,74.30
2018-12-20T09:58:06.513Z,74.40
2018-12-20T10:00:35.733Z,74.60
2018-12-20T10:03:04.878Z,74.40
2018-12-20T10:05:33.856Z,73.70
2018-12-20T10:08:02.777Z,73.30
2018-12-20T10:10:31.688Z,73.70
2018-12-20T10:13:00.781Z,73.80
2018-12-20T10:15:29.746Z,74.50
2018-12-20T10:17:58.713Z,74.90
2018-12-20T10:20:28.020Z,74.00
2018-12-20T10:22:57.013Z,74.60
2018-12-20T10:25:25.900Z,74.10
2018-12-20T10:27:54.893Z,72.00
2018-12-20T10:30:23.788Z,70.30
2018-12-20T10:32:52.716Z,69.40
2018-12-20T10:35:22.629Z,68.20
2018-12-20T10:37:51.532Z,62.60
2018-12-20T10:40:20.457Z,61.20
2018-12-20T10:42:49.417Z,60.40
2018-12-20T10:45:18.334Z,58.20
2018-12-20T10:47:47.235Z,58.80
2018-12-20T10:50:16.186Z,56.80
2018-12-20T10:52:45.314Z,55.20
2018-12-20T10:55:14.273Z,54.40
2018-12-20T10:57:43.214Z,53.80
2018-12-20T11:00:12.466Z,52.50
2018-12-20T11:02:47.976Z,53.20
2018-12-20T11:05:22.696Z,51.90
2018-12-20T11:08:01.626Z,51.00
2018-12-20T11:10:30.553Z,51.10
2018-12-20T11:13:03.862Z,51.00
2018-12-20T11:15:32.780Z,52.30
2018-12-20T11:18:01.772Z,52.10
2018-12-20T11:20:30.834Z,53.20
2018-12-20T11:22:59.919Z,55.20
2018-12-20T11:25:29.944Z,56.40
2018-12-20T11:27:58.961Z,58.00
2018-12-20T11:30:27.856Z,58.70
2018-12-20T11:32:56.741Z,59.60
2018-12-20T11:35:25.651Z,60.80
2018-12-20T11:37:54.582Z,61.00
2018-12-20T11:40:23.727Z,62.40
2018-12-20T11:42:52.671Z,62.30
2018-12-20T11:45:21.563Z,61.20
2018-12-20T11:47:50.461Z,61.10
2018-12-20T11:50:19.383Z,60.90
2018-12-20T11:52:48.405Z,61.10
2018-12-20T11:55:17.294Z,61.40
2018-12-20T11:57:46.217Z,62.10
2018-12-20T12:00:15.481Z,61.20
2018-12-20T12:02:44.509Z,60.50
2018-12-20T12:05:14.600Z,61.00
2018-12-20T12:07:43.532Z,61.50
2018-12-20T12:10:12.562Z,62.60
2018-12-20T12:12:41.606Z,63.00
2018-12-20T12:15:10.670Z,64.00
2018-12-20T12:17:39.557Z,64.10
2018-12-20T12:20:08.715Z,64.50
2018-12-20T12:22:38.663Z,65.00
2018-12-20T12:25:08.443Z,65.60
2018-12-20T12:27:37.469Z,65.70
2018-12-20T12:30:09.499Z,65.80
2018-12-20T12:32:38.421Z,66.70
2018-12-20T12:35:07.313Z,67.10
2018-12-20T12:37:36.200Z,67.70
2018-12-20T12:40:06.213Z,67.70
2018-12-20T12:45:35.599Z,68.20
2018-12-20T12:48:04.616Z,68.80
2018-12-20T12:50:34.474Z,68.80
2018-12-20T12:53:03.522Z,68.40
2018-12-20T12:55:32.532Z,68.50
2018-12-20T12:58:05.017Z,67.70
2018-12-20T13:00:32.435Z,67.20
2018-12-20T13:03:01.355Z,66.80
2018-12-20T13:05:30.244Z,66.40
2018-12-20T13:07:59.224Z,67.20
2018-12-20T13:10:28.199Z,67.50
2018-12-20T13:12:57.101Z,67.20
2018-12-20T13:15:26.213Z,67.70
2018-12-20T13:17:55.039Z,68.40
2018-12-20T13:20:23.951Z,67.70
2018-12-20T13:22:52.894Z,68.10
2018-12-20T13:25:22.010Z,68.20
2018-12-20T13:27:51.128Z,69.00
2018-12-20T13:30:20.052Z,68.20
2018-12-20T13:32:48.953Z,68.20
2018-12-20T13:35:17.910Z,68.30
2018-12-20T13:37:46.867Z,68.40
2018-12-20T13:40:15.815Z,68.00
2018-12-20T13:42:44.874Z,68.60
2018-12-20T13:45:14.075Z,68.90
2018-12-20T13:47:42.999Z,68.70
2018-12-20T13:50:11.916Z,68.30
2018-12-20T13:52:40.856Z,67.60
2018-12-20T13:55:09.920Z,67.10
2018-12-20T13:57:38.806Z,66.20
2018-12-20T14:00:13.407Z,65.80
2018-12-20T14:02:42.401Z,65.80
2018-12-20T14:05:11.352Z,65.50
2018-12-20T14:07:40.391Z,66.20
2018-12-20T14:10:09.697Z,66.80
2018-12-20T14:12:38.691Z,66.70
2018-12-20T14:15:08.458Z,66.70
2018-12-20T14:17:37.367Z,66.80
2018-12-20T14:20:07.765Z,67.00
2018-12-20T14:22:36.723Z,66.90
2018-12-20T14:25:06.166Z,66.40
2018-12-20T14:27:35.148Z,67.00
2018-12-20T14:30:04.846Z,67.00
2018-12-20T14:32:34.536Z,66.40
2018-12-20T14:35:03.581Z,66.40
2018-12-20T14:37:32.630Z,67.00
2018-12-20T14:40:01.546Z,67.00
2018-12-20T14:42:30.493Z,66.80
2018-12-20T14:44:59.379Z,67.60
2018-12-20T14:47:28.314Z,67.10
2018-12-20T14:49:57.300Z,67.50
2018-12-20T14:52:26.352Z,66.50
2018-12-20T14:54:55.284Z,67.10
2018-12-20T14:57:24.232Z,67.20
2018-12-20T14:59:53.180Z,67.60
2018-12-20T15:02:24.295Z,66.70
2018-12-20T15:04:53.280Z,67.10
2018-12-20T15:07:22.225Z,66.70
2018-12-20T15:09:51.234Z,66.50
2018-12-20T15:12:20.169Z,66.40
2018-12-20T15:14:49.177Z,66.80
2018-12-20T15:17:18.155Z,67.00
2018-12-20T15:19:47.133Z,66.50
2018-12-20T15:22:16.048Z,67.00
2018-12-20T15:24:44.994Z,67.10
2018-12-20T15:27:13.944Z,67.90
2018-12-20T15:29:42.943Z,67.30
2018-12-20T15:32:11.906Z,67.40
2018-12-20T15:34:40.804Z,67.50
2018-12-20T15:37:09.696Z,68.00
2018-12-20T15:39:38.568Z,68.20
2018-12-20T15:42:07.620Z,68.30
2018-12-20T15:44:36.500Z,68.30
2018-12-20T15:47:05.605Z,68.70
2018-12-20T15:49:41.767Z,68.20
2018-12-20T15:52:05.493Z,68.00
2018-12-20T15:54:34.479Z,68.00
2018-12-20T15:57:04.105Z,68.20
2018-12-20T15:59:33.055Z,68.30
2018-12-20T16:02:01.932Z,68.30
2018-12-20T16:05:03.286Z,68.70
2018-12-20T16:07:34.820Z,68.60
2018-12-20T16:10:23.990Z,69.80
2018-12-20T16:12:53.139Z,69.20
2018-12-20T16:15:22.733Z,69.40
2018-12-20T16:18:16.630Z,69.20
2018-12-20T16:20:45.543Z,69.30
2018-12-20T16:26:45.680Z,70.20
2018-12-20T16:29:44.224Z,71.00
2018-12-20T16:32:24.243Z,70.20
2018-12-20T16:34:54.225Z,70.90
2018-12-20T16:37:28.833Z,71.70
2018-12-20T16:40:01.381Z,70.70
2018-12-20T16:42:33.479Z,70.80
2018-12-20T16:45:11.620Z,71.00
2018-12-20T16:47:44.616Z,71.10
2018-12-20T16:50:16.772Z,71.40
2018-12-20T16:52:48.709Z,71.60
2018-12-20T16:55:17.679Z,72.00
2018-12-20T16:57:46.672Z,71.60
2018-12-20T17:00:15.788Z,71.80
2018-12-20T17:02:44.928Z,71.90
2018-12-20T17:05:14.008Z,71.90
2018-12-20T17:07:43.017Z,72.10
2018-12-20T17:10:12.020Z,72.50
2018-12-20T17:12:40.968Z,72.30
2018-12-20T17:15:09.992Z,72.30
2018-12-20T17:17:38.903Z,72.30
2018-12-20T17:20:08.456Z,72.40
2018-12-20T17:22:37.396Z,72.80
2018-12-20T17:25:06.335Z,73.10
2018-12-20T17:27:35.236Z,73.40
2018-12-20T17:30:04.925Z,73.40
2018-12-20T17:32:34.799Z,73.60
2018-12-20T17:35:04.000Z,74.00
2018-12-20T17:37:33.979Z,73.40
2018-12-20T17:40:02.972Z,73.80
2018-12-20T17:42:33.101Z,73.80
2018-12-20T17:45:02.020Z,73.70
2018-12-20T17:47:31.079Z,73.80
2018-12-20T17:49:59.971Z,73.70
2018-12-20T17:52:28.851Z,73.70
2018-12-20T17:54:57.741Z,73.50
2018-12-20T17:57:26.640Z,72.90
2018-12-20T17:59:55.530Z,73.30
2018-12-20T18:02:24.562Z,73.00
2018-12-20T18:04:53.434Z,72.90
2018-12-20T18:07:22.457Z,72.80
2018-12-20T18:09:51.335Z,72.80
2018-12-20T18:12:22.767Z,72.60
2018-12-20T18:14:56.070Z,72.70
2018-12-20T18:17:25.764Z,72.60
2018-12-20T18:19:54.674Z,72.50
2018-12-20T18:22:23.759Z,72.50
2018-12-20T18:24:52.664Z,72.60
2018-12-20T18:27:21.720Z,72.50
2018-12-20T18:29:50.863Z,72.60
2018-12-20T18:32:20.583Z,72.30
2018-12-20T18:34:49.678Z,73.10
2018-12-20T18:37:18.648Z,72.40
2018-12-20T18:39:47.556Z,72.60
2018-12-20T18:42:16.453Z,72.30
2018-12-20T18:44:45.371Z,72.50
2018-12-20T18:47:14.254Z,72.40
2018-12-20T18:49:47.541Z,72.50
2018-12-20T18:52:14.137Z,72.60
2018-12-20T18:54:42.985Z,72.70
2018-12-20T18:57:11.853Z,73.10
2018-12-20T18:59:40.777Z,73.00
2018-12-20T19:02:09.691Z,73.20
2018-12-20T19:04:38.592Z,72.90
2018-12-20T19:07:07.590Z,73.00
2018-12-20T19:09:36.468Z,72.90
2018-12-20T19:12:05.385Z,73.40
2018-12-20T19:14:34.884Z,73.40
2018-12-20T19:17:03.814Z,73.50
2018-12-20T19:19:32.725Z,73.70
2018-12-20T19:22:01.647Z,73.60
2018-12-20T19:24:30.553Z,73.60
2018-12-20T19:27:00.648Z,73.80
2018-12-20T19:29:29.631Z,73.80
2018-12-20T19:31:58.687Z,73.90
2018-12-20T19:34:27.690Z,73.30
2018-12-20T19:36:56.626Z,74.00
2018-12-20T19:39:27.045Z,74.10
2018-12-20T19:42:00.426Z,74.10
2018-12-20T19:44:29.358Z,73.90
2018-12-20T19:46:58.319Z,73.70
2018-12-20T19:49:27.340Z,74.00
2018-12-20T19:51:56.276Z,73.20
2018-12-20T19:54:25.323Z,73.10
2018-12-20T19:56:54.520Z,73.10
2018-12-20T19:59:23.555Z,73.30
2018-12-20T20:01:52.662Z,73.30
2018-12-20T20:04:21.578Z,73.40
2018-12-20T20:06:58.419Z,73.40
2018-12-20T20:09:30.722Z,73.50
2018-12-20T20:15:16.674Z,73.80
2018-12-20T20:17:43.924Z,73.10
2018-12-20T20:20:14.134Z,73.30
2018-12-20T20:22:44.027Z,73.10
2018-12-20T20:25:12.947Z,73.20
2018-12-20T20:27:41.901Z,73.10
2018-12-20T20:30:13.690Z,73.90
2018-12-20T20:32:42.719Z,73.20
2018-12-20T20:35:12.953Z,73.60
2018-12-20T20:37:41.908Z,73.10
2018-12-20T20:40:11.378Z,73.80
2018-12-20T20:42:40.403Z,73.90
2018-12-20T20:45:09.731Z,74.10
2018-12-20T20:47:38.930Z,74.10
2018-12-20T20:50:09.549Z,74.30
2018-12-20T20:52:38.605Z,75.00
2018-12-20T20:55:08.808Z,75.20
2018-12-20T20:57:37.961Z,74.40
2018-12-20T21:00:16.200Z,74.30
2018-12-20T21:02:46.190Z,74.70
2018-12-20T21:05:15.220Z,74.60
2018-12-20T21:07:44.329Z,74.50
2018-12-20T21:10:14.232Z,74.20
2018-12-20T21:12:43.171Z,74.10
2018-12-20T21:15:12.377Z,74.40
2018-12-20T21:17:45.988Z,74.50
2018-12-20T21:23:30.960Z,74.80
2018-12-20T21:28:54.456Z,75.70
2018-12-20T21:31:31.264Z,75.50
2018-12-20T21:34:07.886Z,75.50
2018-12-20T21:39:58.200Z,75.80
2018-12-20T21:42:28.146Z,75.70
2018-12-20T21:44:57.008Z,76.00
2018-12-20T21:47:25.924Z,75.80
2018-12-20T21:49:55.011Z,76.40
2018-12-20T21:52:25.007Z,76.00
2018-12-20T21:54:54.902Z,76.00
2018-12-20T22:00:26.543Z,76.30
2018-12-20T22:02:58.614Z,75.50
2018-12-20T22:05:40.428Z,75.50
2018-12-20T22:08:12.765Z,75.50
2018-12-20T22:10:47.111Z,75.30
2018-12-20T22:13:22.436Z,75.50
2018-12-20T22:15:55.060Z,76.00
2018-12-20T22:18:27.472Z,75.20
2018-12-20T22:20:59.705Z,74.90
2018-12-20T22:23:32.445Z,74.70
2018-12-20T22:26:03.322Z,75.10
2018-12-20T22:28:35.337Z,75.60
2018-12-20T22:34:09.704Z,75.40
2018-12-20T22:36:42.133Z,75.70
2018-12-20T22:39:14.268Z,75.10
2018-12-20T22:41:46.272Z,74.40
2018-12-20T22:44:21.033Z,74.40
2018-12-20T22:46:53.621Z,74.20
2018-12-20T22:49:26.226Z,74.50
2018-12-20T22:52:01.233Z,75.30
2018-12-20T22:54:37.884Z,74.70
2018-12-20T22:57:06.745Z,74.40
2018-12-20T22:59:35.651Z,74.30
2018-12-20T23:02:17.874Z,74.30
2018-12-20T23:04:45.305Z,74.20
2018-12-20T23:07:17.647Z,74.50
2018-12-20T23:12:55.167Z,74.70
2018-12-20T23:15:24.182Z,75.00
2018-12-20T23:17:58.927Z,75.00
2018-12-20T23:23:30.948Z,74.60
2018-12-20T23:26:00.009Z,75.00
2018-12-20T23:28:28.981Z,75.10
2018-12-20T23:30:57.951Z,75.40
2018-12-20T23:33:27.002Z,75.70
2018-12-20T23:35:55.913Z,75.70
2018-12-20T23:38:24.852Z,75.50
2018-12-20T23:40:53.816Z,75.60
2018-12-20T23:43:22.776Z,75.20
2018-12-20T23:45:51.716Z,75.30
2018-12-20T23:48:20.655Z,76.10
2018-12-20T23:50:49.580Z,75.40
2018-12-20T23:53:18.518Z,75.20
2018-12-20T23:55:47.520Z,75.20
2018-12-20T23:58:17.649Z,75.40
